createdAt,value
2018-05-04T00:01:17.151Z,10.30
2018-05-04T00:03:50.754Z,10.20
2018-05-04T00:06:24.440Z,10.20
2018-05-04T00:08:58.997Z,10.10
2018-05-04T00:11:33.392Z,10.10
2018-05-04T00:14:07.229Z,10.10
2018-05-04T00:16:40.827Z,10.10
2018-05-04T00:19:14.639Z,10.00
2018-05-04T00:21:48.449Z,10.00
2018-05-04T00:24:22.129Z,10.00
2018-05-04T00:26:55.735Z,10.00
2018-05-04T00:29:29.649Z,9.90
2018-05-04T00:32:03.459Z,9.90
2018-05-04T00:34:37.760Z,9.80
2018-05-04T00:37:11.490Z,9.70
2018-05-04T00:39:45.107Z,9.80
2018-05-04T00:42:18.783Z,9.70
2018-05-04T00:44:52.488Z,9.70
2018-05-04T00:47:25.997Z,9.70
2018-05-04T00:49:59.563Z,9.70
2018-05-04T00:52:33.285Z,9.70
2018-05-04T00:55:06.891Z,9.70
2018-05-04T00:57:40.694Z,9.70
2018-05-04T01:00:14.211Z,9.60
2018-05-04T01:02:47.899Z,9.60
2018-05-04T01:05:21.618Z,9.60
2018-05-04T01:07:55.172Z,9.50
2018-05-04T01:10:28.922Z,9.50
2018-05-04T01:13:02.706Z,9.40
2018-05-04T01:15:36.332Z,9.40
2018-05-04T01:18:10.114Z,9.30
2018-05-04T01:20:43.717Z,9.30
2018-05-04T01:23:17.218Z,9.30
2018-05-04T01:25:50.774Z,9.20
2018-05-04T01:28:24.526Z,9.20
2018-05-04T01:30:58.124Z,9.20
2018-05-04T01:33:31.933Z,9.20
2018-05-04T01:36:05.606Z,9.10
2018-05-04T01:38:39.158Z,9.10
2018-05-04T01:41:12.823Z,9.10
2018-05-04T01:43:46.534Z,9.00
2018-05-04T01:46:20.174Z,9.00
2018-05-04T01:48:53.914Z,9.00
2018-05-04T01:51:27.610Z,9.00
2018-05-04T01:54:01.250Z,9.00
2018-05-04T01:56:34.906Z,8.90
2018-05-04T01:59:08.640Z,8.90
2018-05-04T02:01:42.564Z,8.90
2018-05-04T02:04:16.114Z,8.90
2018-05-04T02:06:49.831Z,8.90
2018-05-04T02:09:23.778Z,8.90
2018-05-04T02:11:58.268Z,8.80
2018-05-04T02:14:31.813Z,8.80
2018-05-04T02:17:05.398Z,8.80
2018-05-04T02:19:38.916Z,8.70
2018-05-04T02:22:12.463Z,8.40
2018-05-04T02:24:46.202Z,8.60
2018-05-04T02:27:19.799Z,8.60
2018-05-04T02:29:53.470Z,8.60
2018-05-04T02:32:26.999Z,8.60
2018-05-04T02:35:00.520Z,8.60
2018-05-04T02:37:34.067Z,8.50
2018-05-04T02:40:07.987Z,8.50
2018-05-04T02:42:41.471Z,8.50
2018-05-04T02:45:15.223Z,8.40
2018-05-04T02:47:48.826Z,8.40
2018-05-04T02:50:22.614Z,8.40
2018-05-04T02:52:56.422Z,8.30
2018-05-04T02:55:30.278Z,8.30
2018-05-04T02:58:04.036Z,8.30
2018-05-04T03:00:37.718Z,8.30
2018-05-04T03:03:11.346Z,8.20
2018-05-04T03:05:45.119Z,8.20
2018-05-04T03:08:18.845Z,8.10
2018-05-04T03:10:53.150Z,8.20
2018-05-04T03:13:26.812Z,8.20
2018-05-04T03:16:00.670Z,8.20
2018-05-04T03:18:34.318Z,8.20
2018-05-04T03:21:08.076Z,8.10
2018-05-04T03:23:41.885Z,8.10
2018-05-04T03:26:15.485Z,8.00
2018-05-04T03:28:49.188Z,8.00
2018-05-04T03:31:22.890Z,8.00
2018-05-04T03:33:57.192Z,8.00
2018-05-04T03:36:30.981Z,8.00
2018-05-04T03:39:05.514Z,8.00
2018-05-04T03:41:39.219Z,8.00
2018-05-04T03:44:14.238Z,7.80
2018-05-04T03:46:48.675Z,7.80
2018-05-04T03:49:22.389Z,7.70
2018-05-04T03:51:56.016Z,7.70
2018-05-04T03:54:29.805Z,7.80
2018-05-04T03:57:15.287Z,7.80
2018-05-04T04:00:01.574Z,7.80
2018-05-04T04:02:47.058Z,7.80
2018-05-04T04:05:20.671Z,7.70
2018-05-04T04:07:54.459Z,7.80
2018-05-04T04:10:27.967Z,7.80
2018-05-04T04:13:01.682Z,7.80
2018-05-04T04:15:35.534Z,7.80
2018-05-04T04:18:09.225Z,7.80
2018-05-04T04:20:42.882Z,7.80
2018-05-04T04:23:16.570Z,7.80
2018-05-04T04:25:50.286Z,7.90
2018-05-04T04:28:23.910Z,7.90
2018-05-04T04:30:58.387Z,7.80
2018-05-04T04:33:32.002Z,7.80
2018-05-04T04:36:05.579Z,7.80
2018-05-04T04:38:39.514Z,7.90
2018-05-04T04:41:13.395Z,7.80
2018-05-04T04:43:47.131Z,7.90
2018-05-04T04:46:20.944Z,7.90
2018-05-04T04:48:54.706Z,7.80
2018-05-04T04:51:28.411Z,7.90
2018-05-04T04:54:02.108Z,8.00
2018-05-04T04:56:35.748Z,8.00
2018-05-04T04:59:09.563Z,8.00
2018-05-04T05:01:43.186Z,8.00
2018-05-04T05:04:17.783Z,8.00
2018-05-04T05:06:51.459Z,8.00
2018-05-04T05:09:25.894Z,8.20
2018-05-04T05:11:59.475Z,8.10
2018-05-04T05:14:33.232Z,8.20
2018-05-04T05:17:07.019Z,8.20
2018-05-04T05:19:40.610Z,8.30
2018-05-04T05:22:14.423Z,8.40
2018-05-04T05:24:48.023Z,8.50
2018-05-04T05:27:22.319Z,8.60
2018-05-04T05:29:56.058Z,8.60
2018-05-04T05:32:29.842Z,8.70
2018-05-04T05:35:04.254Z,8.80
2018-05-04T05:37:37.886Z,8.80
2018-05-04T05:40:11.673Z,8.90
2018-05-04T05:42:45.343Z,9.00
2018-05-04T05:45:18.872Z,9.00
2018-05-04T05:47:52.678Z,9.00
2018-05-04T05:50:26.328Z,9.10
2018-05-04T05:53:00.054Z,9.00
2018-05-04T05:55:33.591Z,9.20
2018-05-04T05:58:07.333Z,9.30
2018-05-04T06:00:41.094Z,9.30
2018-05-04T06:03:14.906Z,9.50
2018-05-04T06:05:48.495Z,9.50
2018-05-04T06:08:21.982Z,9.60
2018-05-04T06:10:55.583Z,9.60
2018-05-04T06:13:29.983Z,9.70
2018-05-04T06:16:03.739Z,9.70
2018-05-04T06:18:37.522Z,9.80
2018-05-04T06:21:11.145Z,9.90
2018-05-04T06:23:45.621Z,10.00
2018-05-04T06:26:19.237Z,10.00
2018-05-04T06:28:53.026Z,9.90
2018-05-04T06:31:26.725Z,10.10
2018-05-04T06:34:00.272Z,10.10
2018-05-04T06:36:33.899Z,10.20
2018-05-04T06:39:07.562Z,10.30
2018-05-04T06:41:41.370Z,10.40
2018-05-04T06:44:14.983Z,10.40
2018-05-04T06:46:49.293Z,10.50
2018-05-04T06:49:22.824Z,10.40
2018-05-04T06:51:56.439Z,10.60
2018-05-04T06:54:30.079Z,10.60
2018-05-04T06:57:03.794Z,10.70
2018-05-04T06:59:37.469Z,10.80
2018-05-04T07:02:11.114Z,10.80
2018-05-04T07:04:44.667Z,11.00
2018-05-04T07:07:18.510Z,11.10
2018-05-04T07:09:52.212Z,11.20
2018-05-04T07:12:26.635Z,11.40
2018-05-04T07:15:00.351Z,11.40
2018-05-04T07:17:33.923Z,11.40
2018-05-04T07:20:08.330Z,11.60
2018-05-04T07:22:41.974Z,11.50
2018-05-04T07:25:15.649Z,11.70
2018-05-04T07:27:49.394Z,11.80
2018-05-04T07:30:23.277Z,11.80
2018-05-04T07:32:57.781Z,12.00
2018-05-04T07:35:31.697Z,11.90
2018-05-04T07:38:06.334Z,12.10
2018-05-04T07:40:40.555Z,12.20
2018-05-04T07:43:14.435Z,12.30
2018-05-04T07:45:48.146Z,12.50
2018-05-04T07:48:21.783Z,12.60
2018-05-04T07:50:55.422Z,12.70
2018-05-04T07:53:28.970Z,12.80
2018-05-04T07:56:02.625Z,12.90
2018-05-04T07:58:36.273Z,13.00
2018-05-04T08:01:09.967Z,13.10
2018-05-04T08:03:43.562Z,13.10
2018-05-04T08:06:17.234Z,13.30
2018-05-04T08:08:50.966Z,13.40
2018-05-04T08:11:24.610Z,13.40
2018-05-04T08:13:58.371Z,13.50
2018-05-04T08:16:32.864Z,13.70
2018-05-04T08:19:06.486Z,13.70
2018-05-04T08:21:40.151Z,13.80
2018-05-04T08:24:13.801Z,13.90
2018-05-04T08:26:47.481Z,13.90
2018-05-04T08:29:21.926Z,14.20
2018-05-04T08:31:55.630Z,14.30
2018-05-04T08:34:29.318Z,14.30
2018-05-04T08:37:03.240Z,14.30
2018-05-04T08:39:36.842Z,14.50
2018-05-04T08:42:10.614Z,14.70
2018-05-04T08:44:44.226Z,14.70
2018-05-04T08:47:17.890Z,15.00
2018-05-04T08:49:51.536Z,15.00
2018-05-04T08:52:25.254Z,15.20
2018-05-04T08:54:58.863Z,15.30
2018-05-04T08:57:32.663Z,15.40
2018-05-04T09:00:06.280Z,15.60
2018-05-04T09:02:40.071Z,15.60
2018-05-04T09:05:13.980Z,15.80
2018-05-04T09:07:47.366Z,15.90
2018-05-04T09:10:20.959Z,15.90
2018-05-04T09:12:54.671Z,16.10
2018-05-04T09:15:28.382Z,16.20
2018-05-04T09:18:02.078Z,16.00
2018-05-04T09:20:36.491Z,16.10
2018-05-04T09:23:10.174Z,16.00
2018-05-04T09:25:43.767Z,16.30
2018-05-04T09:28:17.370Z,16.60
2018-05-04T09:30:51.096Z,16.50
2018-05-04T09:33:24.707Z,16.40
2018-05-04T09:35:58.514Z,16.70
2018-05-04T09:38:32.123Z,17.00
2018-05-04T09:41:06.534Z,17.20
2018-05-04T09:43:40.160Z,17.20
2018-05-04T09:46:14.558Z,17.70
2018-05-04T09:48:48.156Z,17.70
2018-05-04T09:51:21.967Z,17.80
2018-05-04T09:53:55.563Z,17.80
2018-05-04T09:56:29.082Z,17.90
2018-05-04T09:59:02.839Z,17.90
2018-05-04T10:01:36.566Z,18.00
2018-05-04T10:04:10.269Z,17.70
2018-05-04T10:06:43.866Z,17.70
2018-05-04T10:09:17.371Z,17.50
2018-05-04T10:11:51.183Z,17.70
2018-05-04T10:14:24.672Z,17.90
2018-05-04T10:16:58.402Z,17.90
2018-05-04T10:19:32.668Z,18.20
2018-05-04T10:22:06.485Z,18.20
2018-05-04T10:24:40.899Z,18.80
2018-05-04T10:27:14.842Z,18.70
2018-05-04T10:29:48.635Z,18.70
2018-05-04T10:32:22.431Z,18.90
2018-05-04T10:34:56.046Z,18.90
2018-05-04T10:37:29.682Z,19.00
2018-05-04T10:40:03.255Z,19.00
2018-05-04T10:42:36.779Z,19.00
2018-05-04T10:45:10.367Z,18.80
2018-05-04T10:47:44.045Z,18.90
2018-05-04T10:50:17.856Z,19.00
2018-05-04T10:52:51.455Z,19.20
2018-05-04T10:55:24.954Z,19.50
2018-05-04T10:57:59.980Z,19.60
2018-05-04T11:00:33.714Z,19.60
2018-05-04T11:03:07.490Z,20.00
2018-05-04T11:05:41.299Z,20.20
2018-05-04T11:08:14.812Z,20.40
2018-05-04T11:10:48.303Z,20.60
2018-05-04T11:13:22.106Z,20.60
2018-05-04T11:15:55.774Z,20.40
2018-05-04T11:18:29.338Z,20.30
2018-05-04T11:21:03.102Z,20.00
2018-05-04T11:23:37.530Z,20.70
2018-05-04T11:26:11.339Z,20.70
2018-05-04T11:28:44.944Z,20.90
2018-05-04T11:31:19.435Z,20.70
2018-05-04T11:33:53.366Z,20.70
2018-05-04T11:36:27.011Z,20.20
2018-05-04T11:39:00.769Z,19.80
2018-05-04T11:41:34.198Z,19.70
2018-05-04T11:44:07.870Z,19.60
2018-05-04T11:46:41.607Z,19.60
2018-05-04T11:49:15.174Z,19.80
2018-05-04T11:51:48.785Z,20.40
2018-05-04T11:54:23.195Z,19.90
2018-05-04T11:56:56.880Z,19.90
2018-05-04T11:59:30.707Z,19.50
2018-05-04T12:02:04.216Z,19.50
2018-05-04T12:04:37.985Z,19.50
2018-05-04T12:07:11.614Z,20.00
2018-05-04T12:09:46.027Z,21.30
2018-05-04T12:12:19.704Z,21.20
2018-05-04T12:14:54.162Z,21.40
2018-05-04T12:17:27.655Z,21.40
2018-05-04T12:20:01.462Z,21.20
2018-05-04T12:22:35.271Z,21.40
2018-05-04T12:25:08.974Z,21.70
2018-05-04T12:27:42.674Z,21.80
2018-05-04T12:30:16.470Z,22.00
2018-05-04T12:32:49.978Z,22.30
2018-05-04T12:35:23.674Z,22.40
2018-05-04T12:37:57.481Z,22.40
2018-05-04T12:40:31.078Z,22.30
2018-05-04T12:43:04.566Z,22.00
2018-05-04T12:45:38.209Z,22.30
2018-05-04T12:48:11.749Z,22.40
2018-05-04T12:50:45.489Z,22.60
2018-05-04T12:53:19.086Z,22.90
2018-05-04T12:55:52.690Z,23.00
2018-05-04T12:58:27.106Z,22.80
2018-05-04T13:01:00.776Z,22.80
2018-05-04T13:03:34.427Z,22.40
2018-05-04T13:06:08.123Z,22.50
2018-05-04T13:08:41.611Z,22.90
2018-05-04T13:11:15.210Z,22.90
2018-05-04T13:13:48.691Z,23.30
2018-05-04T13:16:22.315Z,23.40
2018-05-04T13:18:56.027Z,23.30
2018-05-04T13:21:29.714Z,22.60
2018-05-04T13:24:03.323Z,22.60
2018-05-04T13:26:37.014Z,22.90
2018-05-04T13:29:10.526Z,23.10
2018-05-04T13:31:44.122Z,22.90
2018-05-04T13:34:17.618Z,22.90
2018-05-04T13:36:51.139Z,23.20
2018-05-04T13:39:24.831Z,23.60
2018-05-04T13:41:58.430Z,23.60
2018-05-04T13:44:32.213Z,23.60
2018-05-04T13:47:05.830Z,23.40
2018-05-04T13:49:39.543Z,23.70
2018-05-04T13:52:13.839Z,24.20
2018-05-04T13:54:47.537Z,24.20
2018-05-04T13:57:21.246Z,24.00
2018-05-04T13:59:55.170Z,23.70
2018-05-04T14:02:28.683Z,23.30
2018-05-04T14:05:02.275Z,23.10
2018-05-04T14:07:35.862Z,23.00
2018-05-04T14:10:09.557Z,23.00
2018-05-04T14:12:44.017Z,23.20
2018-05-04T14:15:17.590Z,23.20
2018-05-04T14:17:51.098Z,23.00
2018-05-04T14:20:25.606Z,23.00
2018-05-04T14:23:00.236Z,23.00
2018-05-04T14:25:34.526Z,23.20
2018-05-04T14:28:08.190Z,23.20
2018-05-04T14:30:41.867Z,23.50
2018-05-04T14:33:15.376Z,23.40
2018-05-04T14:35:49.058Z,23.60
2018-05-04T14:38:22.751Z,23.30
2018-05-04T14:40:56.280Z,23.30
2018-05-04T14:43:30.066Z,23.50
2018-05-04T14:46:03.665Z,23.60
2018-05-04T14:48:37.374Z,23.80
2018-05-04T14:51:11.074Z,23.80
2018-05-04T14:53:44.883Z,23.60
2018-05-04T14:56:18.650Z,23.20
2018-05-04T14:58:53.019Z,23.20
2018-05-04T15:01:26.732Z,23.20
2018-05-04T15:04:00.304Z,23.40
2018-05-04T15:06:33.889Z,22.90
2018-05-04T15:09:07.710Z,23.00
2018-05-04T15:11:41.251Z,23.00
2018-05-04T15:14:15.122Z,23.60
2018-05-04T15:16:48.807Z,23.80
2018-05-04T15:19:23.851Z,23.50
2018-05-04T15:21:57.563Z,23.60
2018-05-04T15:24:31.368Z,23.80
2018-05-04T15:27:05.178Z,23.80
2018-05-04T15:29:38.977Z,23.90
2018-05-04T15:32:12.656Z,23.90
2018-05-04T15:34:46.286Z,23.90
2018-05-04T15:37:19.988Z,24.20
2018-05-04T15:39:53.758Z,24.10
2018-05-04T15:42:27.390Z,23.80
2018-05-04T15:45:01.078Z,23.60
2018-05-04T15:47:34.801Z,23.90
2018-05-04T15:50:14.242Z,24.20
2018-05-04T15:52:48.627Z,23.80
2018-05-04T15:55:23.066Z,23.70
2018-05-04T15:57:56.746Z,23.70
2018-05-04T16:00:30.581Z,23.90
2018-05-04T16:03:04.079Z,23.90
2018-05-04T16:05:37.786Z,23.90
2018-05-04T16:08:11.411Z,24.10
2018-05-04T16:10:45.098Z,23.90
2018-05-04T16:13:19.610Z,23.40
2018-05-04T16:15:53.925Z,23.80
2018-05-04T16:18:28.324Z,23.60
2018-05-04T16:21:03.370Z,23.80
2018-05-04T16:23:37.755Z,23.60
2018-05-04T16:26:12.947Z,23.60
2018-05-04T16:28:46.710Z,23.50
2018-05-04T16:31:20.346Z,23.40
2018-05-04T16:33:54.823Z,23.30
2018-05-04T16:36:28.543Z,23.30
2018-05-04T16:39:02.262Z,23.20
2018-05-04T16:41:36.006Z,23.10
2018-05-04T16:44:09.792Z,23.20
2018-05-04T16:46:48.892Z,23.30
2018-05-04T16:49:25.254Z,23.30
2018-05-04T16:51:58.908Z,23.30
2018-05-04T16:54:33.282Z,23.40
2018-05-04T16:57:07.711Z,23.50
2018-05-04T16:59:42.727Z,23.50
2018-05-04T17:02:17.347Z,23.60
2018-05-04T17:04:51.562Z,23.30
2018-05-04T17:07:25.133Z,23.30
2018-05-04T17:09:58.655Z,23.50
2018-05-04T17:12:33.022Z,23.30
2018-05-04T17:15:06.572Z,23.30
2018-05-04T17:17:40.294Z,23.20
2018-05-04T17:20:13.998Z,22.90
2018-05-04T17:22:49.058Z,22.80
2018-05-04T17:25:22.761Z,22.80
2018-05-04T17:27:56.395Z,22.80
2018-05-04T17:30:30.020Z,22.80
2018-05-04T17:33:04.477Z,22.30
2018-05-04T17:35:38.187Z,22.30
2018-05-04T17:38:12.702Z,21.70
2018-05-04T17:40:47.102Z,21.60
2018-05-04T17:43:20.838Z,21.60
2018-05-04T17:45:54.643Z,21.50
2018-05-04T17:48:28.933Z,21.10
2018-05-04T17:51:02.523Z,21.10
2018-05-04T17:53:37.062Z,20.60
2018-05-04T17:56:10.747Z,20.60
2018-05-04T17:58:44.372Z,20.60
2018-05-04T18:01:18.289Z,20.70
2018-05-04T18:03:52.141Z,20.60
2018-05-04T18:06:25.596Z,20.50
2018-05-04T18:08:59.131Z,20.30
2018-05-04T18:11:33.714Z,20.00
2018-05-04T18:14:07.526Z,20.00
2018-05-04T18:16:41.126Z,20.00
2018-05-04T18:19:15.410Z,19.90
2018-05-04T18:21:49.039Z,19.80
2018-05-04T18:24:22.750Z,19.80
2018-05-04T18:26:57.166Z,19.50
2018-05-04T18:29:30.772Z,19.50
2018-05-04T18:32:04.571Z,19.50
2018-05-04T18:34:38.242Z,19.40
2018-05-04T18:37:11.775Z,19.20
2018-05-04T18:39:47.019Z,19.30
2018-05-04T18:42:20.823Z,19.20
2018-05-04T18:44:54.637Z,19.10
2018-05-04T18:47:28.311Z,19.00
2018-05-04T18:50:01.824Z,18.90
2018-05-04T18:52:35.440Z,18.80
2018-05-04T18:55:09.018Z,18.70
2018-05-04T18:57:42.830Z,18.70
2018-05-04T19:00:16.343Z,18.50
2018-05-04T19:02:55.764Z,18.50
2018-05-04T19:05:29.338Z,18.30
2018-05-04T19:08:02.871Z,18.30
2018-05-04T19:10:36.454Z,18.20
2018-05-04T19:13:10.099Z,18.00
2018-05-04T19:15:43.991Z,18.00
2018-05-04T19:18:17.664Z,17.90
2018-05-04T19:20:51.390Z,17.90
2018-05-04T19:23:25.879Z,17.80
2018-05-04T19:25:59.610Z,17.70
2018-05-04T19:28:33.210Z,17.70
2018-05-04T19:31:06.744Z,17.60
2018-05-04T19:33:41.431Z,17.50
2018-05-04T19:36:15.066Z,17.50
2018-05-04T19:38:48.837Z,17.50
2018-05-04T19:41:23.151Z,17.20
2018-05-04T19:43:56.742Z,17.10
2018-05-04T19:46:30.674Z,17.10
2018-05-04T19:49:04.473Z,17.00
2018-05-04T19:51:38.078Z,17.00
2018-05-04T19:54:12.586Z,16.90
2018-05-04T19:56:46.094Z,16.90
2018-05-04T19:59:21.149Z,16.70
2018-05-04T20:01:54.851Z,16.70
2018-05-04T20:04:28.375Z,16.70
2018-05-04T20:07:02.116Z,16.50
2018-05-04T20:09:36.012Z,16.40
2018-05-04T20:12:09.754Z,16.30
2018-05-04T20:14:43.323Z,16.30
2018-05-04T20:17:16.962Z,16.20
2018-05-04T20:19:51.250Z,16.10
2018-05-04T20:22:24.962Z,16.10
2018-05-04T20:24:58.505Z,16.00
2018-05-04T20:27:32.383Z,16.00
2018-05-04T20:30:05.978Z,15.90
2018-05-04T20:32:39.995Z,15.80
2018-05-04T20:35:13.591Z,15.70
2018-05-04T20:37:47.160Z,15.60
2018-05-04T20:40:20.653Z,15.60
2018-05-04T20:42:54.385Z,15.60
2018-05-04T20:45:27.990Z,15.50
2018-05-04T20:48:01.518Z,15.40
2018-05-04T20:50:35.022Z,15.30
2018-05-04T20:53:08.656Z,15.30
2018-05-04T20:55:42.266Z,15.20
2018-05-04T20:58:16.703Z,15.20
2018-05-04T21:00:50.626Z,15.10
2018-05-04T21:03:25.040Z,15.10
2018-05-04T21:05:58.694Z,15.10
2018-05-04T21:08:32.326Z,15.00
2018-05-04T21:11:05.946Z,15.00
2018-05-04T21:13:39.529Z,14.90
2018-05-04T21:16:13.108Z,14.80
2018-05-04T21:18:47.562Z,14.80
2018-05-04T21:21:21.144Z,14.80
2018-05-04T21:23:54.871Z,14.90
2018-05-04T21:26:28.370Z,14.80
2018-05-04T21:29:01.963Z,14.70
2018-05-04T21:31:36.729Z,14.60
2018-05-04T21:34:11.207Z,14.60
2018-05-04T21:36:44.926Z,14.60
2018-05-04T21:39:19.351Z,14.60
2018-05-04T21:41:52.966Z,14.60
2018-05-04T21:44:26.746Z,14.60
2018-05-04T21:47:00.266Z,14.60
2018-05-04T21:49:33.946Z,14.60
2018-05-04T21:52:07.659Z,14.50
2018-05-04T21:54:41.242Z,14.50
2018-05-04T21:57:15.546Z,14.40
2018-05-04T21:59:49.382Z,14.40
2018-05-04T22:02:23.191Z,14.30
2018-05-04T22:04:56.715Z,14.30
2018-05-04T22:07:31.070Z,14.30
2018-05-04T22:10:05.514Z,14.20
2018-05-04T22:12:39.044Z,14.20
2018-05-04T22:15:13.339Z,14.20
2018-05-04T22:17:46.998Z,14.20
2018-05-04T22:20:20.655Z,14.10
2018-05-04T22:22:54.250Z,14.10
2018-05-04T22:25:27.939Z,14.00
2018-05-04T22:28:01.659Z,14.00
2018-05-04T22:30:35.250Z,13.90
2018-05-04T22:33:08.742Z,13.90
2018-05-04T22:35:42.335Z,13.90
2018-05-04T22:38:16.127Z,13.90
2018-05-04T22:40:49.775Z,13.70
2018-05-04T22:43:23.339Z,13.70
2018-05-04T22:45:56.943Z,13.60
2018-05-04T22:48:30.642Z,13.60
2018-05-04T22:51:04.245Z,13.50
2018-05-04T22:53:38.688Z,13.50
2018-05-04T22:56:12.216Z,13.50
2018-05-04T22:58:45.894Z,13.50
2018-05-04T23:01:20.513Z,13.50
2018-05-04T23:03:54.179Z,13.50
2018-05-04T23:06:28.626Z,13.40
2018-05-04T23:09:02.417Z,13.40
2018-05-04T23:11:36.851Z,13.40
2018-05-04T23:14:10.771Z,13.50
2018-05-04T23:16:44.376Z,13.40
2018-05-04T23:19:18.185Z,13.20
2018-05-04T23:21:51.900Z,13.30
2018-05-04T23:24:26.269Z,13.20
2018-05-04T23:27:00.199Z,13.20
2018-05-04T23:29:34.010Z,13.20
2018-05-04T23:32:08.023Z,13.10
2018-05-04T23:34:42.307Z,13.10
2018-05-04T23:37:16.250Z,13.10
2018-05-04T23:39:50.536Z,12.90
2018-05-04T23:42:24.171Z,12.90
2018-05-04T23:44:57.875Z,12.70
2018-05-04T23:47:31.694Z,12.80
2018-05-04T23:50:05.438Z,12.90
2018-05-04T23:52:39.079Z,12.90
2018-05-04T23:55:12.751Z,12.80
2018-05-04T23:57:47.195Z,12.80
